createdAt,value
2022-08-11T00:01:15.748Z,22.57
2022-08-11T00:03:48.680Z,22.55
2022-08-11T00:06:25.796Z,22.48
2022-08-11T00:08:55.708Z,22.43
2022-08-11T00:11:35.192Z,22.41
2022-08-11T00:14:12.913Z,22.39
2022-08-11T00:16:44.560Z,22.33
2022-08-11T00:19:20.431Z,22.24
2022-08-11T00:22:10.926Z,22.20
2022-08-11T00:24:53.560Z,22.16
2022-08-11T00:27:33.493Z,22.15
2022-08-11T00:30:04.915Z,22.15
2022-08-11T00:32:35.159Z,22.13
2022-08-11T00:35:50.907Z,22.03
2022-08-11T00:37:57.828Z,21.85
2022-08-11T00:40:34.407Z,21.65
2022-08-11T00:43:20.345Z,21.50
2022-08-11T00:46:10.691Z,21.40
2022-08-11T00:48:58.617Z,21.30
2022-08-11T00:52:04.184Z,21.22
2022-08-11T00:54:59.196Z,21.14
2022-08-11T00:57:55.204Z,21.10
2022-08-11T01:00:26.656Z,21.05
2022-08-11T01:03:17.919Z,21.00
2022-08-11T01:06:17.460Z,20.97
2022-08-11T01:09:22.419Z,20.96
2022-08-11T01:12:20.144Z,20.97
2022-08-11T01:15:32.802Z,20.95
2022-08-11T01:18:45.111Z,20.89
2022-08-11T01:21:59.946Z,20.87
2022-08-11T01:25:04.276Z,20.82
2022-08-11T01:28:06.793Z,20.78
2022-08-11T01:31:11.471Z,20.72
2022-08-11T01:34:15.860Z,20.68
2022-08-11T01:37:10.709Z,20.71
2022-08-11T01:40:28.391Z,20.74
2022-08-11T01:43:37.478Z,20.77
2022-08-11T01:46:15.785Z,20.81
2022-08-11T01:50:06.409Z,20.84
2022-08-11T01:52:08.372Z,20.84
2022-08-11T01:54:48.398Z,20.82
2022-08-11T01:57:37.774Z,20.78
2022-08-11T02:00:14.580Z,20.70
2022-08-11T02:03:01.241Z,20.61
2022-08-11T02:05:51.750Z,20.58
2022-08-11T02:08:33.286Z,20.55
2022-08-11T02:11:30.780Z,20.55
2022-08-11T02:14:15.582Z,20.58
2022-08-11T02:16:57.137Z,20.57
2022-08-11T02:19:56.261Z,20.58
2022-08-11T02:22:53.993Z,20.56
2022-08-11T02:25:31.316Z,20.50
2022-08-11T02:28:08.301Z,20.49
2022-08-11T02:30:41.613Z,20.47
2022-08-11T02:33:24.669Z,20.49
2022-08-11T02:36:07.746Z,20.52
2022-08-11T02:38:51.468Z,20.53
2022-08-11T02:41:44.510Z,20.56
2022-08-11T02:44:27.720Z,20.54
2022-08-11T02:47:13.950Z,20.52
2022-08-11T02:50:02.597Z,20.47
2022-08-11T02:52:44.800Z,20.40
2022-08-11T02:55:50.888Z,20.36
2022-08-11T02:58:27.920Z,20.35
2022-08-11T03:01:10.929Z,20.33
2022-08-11T03:03:51.275Z,20.29
2022-08-11T03:06:35.488Z,20.30
2022-08-11T03:09:13.789Z,20.33
2022-08-11T03:12:16.742Z,20.34
2022-08-11T03:15:12.710Z,20.35
2022-08-11T03:17:55.736Z,20.34
2022-08-11T03:20:38.179Z,20.31
2022-08-11T03:23:19.652Z,20.28
2022-08-11T03:25:55.594Z,20.31
2022-08-11T03:28:34.078Z,20.32
2022-08-11T03:31:24.288Z,20.34
2022-08-11T03:34:06.264Z,20.34
2022-08-11T03:37:17.118Z,20.34
2022-08-11T03:39:56.595Z,20.31
2022-08-11T03:42:33.619Z,20.28
2022-08-11T03:45:15.904Z,20.22
2022-08-11T03:48:04.787Z,20.24
2022-08-11T03:50:57.604Z,20.19
2022-08-11T03:53:48.118Z,20.13
2022-08-11T03:56:47.028Z,20.17
2022-08-11T03:59:43.234Z,20.14
2022-08-11T04:02:39.264Z,20.10
2022-08-11T04:05:44.523Z,20.12
2022-08-11T04:08:44.508Z,20.16
2022-08-11T04:11:41.350Z,20.22
2022-08-11T04:15:06.462Z,20.25
2022-08-11T04:18:19.982Z,20.31
2022-08-11T04:21:05.147Z,20.40
2022-08-11T04:24:36.386Z,20.47
2022-08-11T04:27:37.446Z,20.50
2022-08-11T04:30:14.469Z,20.56
2022-08-11T04:33:23.203Z,20.63
2022-08-11T04:36:02.517Z,20.67
2022-08-11T04:39:08.994Z,20.68
2022-08-11T04:42:31.033Z,20.71
2022-08-11T04:45:39.980Z,20.73
2022-08-11T04:48:45.767Z,20.74
2022-08-11T04:51:55.641Z,20.83
2022-08-11T04:55:00.707Z,20.88
2022-08-11T04:57:59.368Z,20.95
2022-08-11T05:01:03.795Z,21.03
2022-08-11T05:03:54.236Z,21.12
2022-08-11T05:07:06.738Z,21.19
2022-08-11T05:10:08.489Z,21.17
2022-08-11T05:12:44.864Z,21.17
2022-08-11T05:15:42.533Z,21.20
2022-08-11T05:18:35.332Z,21.26
2022-08-11T05:21:27.159Z,21.37
2022-08-11T05:24:21.702Z,21.40
2022-08-11T05:27:13.765Z,21.43
2022-08-11T05:30:09.867Z,21.45
2022-08-11T05:33:02.175Z,21.50
2022-08-11T05:36:00.100Z,21.58
2022-08-11T05:38:49.020Z,21.67
2022-08-11T05:41:40.400Z,21.75
2022-08-11T05:44:29.596Z,21.84
2022-08-11T05:47:18.446Z,21.94
2022-08-11T05:50:13.574Z,22.08
2022-08-11T05:53:09.180Z,22.24
2022-08-11T05:56:03.503Z,22.40
2022-08-11T05:58:42.431Z,22.56
2022-08-11T06:01:14.309Z,22.70
2022-08-11T06:04:03.676Z,22.80
2022-08-11T06:06:33.153Z,22.91
2022-08-11T06:09:02.767Z,23.02
2022-08-11T06:11:43.940Z,23.12
2022-08-11T06:14:15.427Z,23.20
2022-08-11T06:16:49.197Z,23.30
2022-08-11T06:19:22.571Z,23.42
2022-08-11T06:21:52.677Z,23.54
2022-08-11T06:24:22.435Z,23.67
2022-08-11T06:29:55.078Z,23.78
2022-08-11T06:32:31.600Z,23.84
2022-08-11T06:35:11.257Z,23.85
2022-08-11T06:37:59.054Z,23.98
2022-08-11T06:40:43.362Z,24.15
2022-08-11T06:43:21.551Z,24.37
2022-08-11T06:45:55.348Z,24.57
2022-08-11T06:48:25.417Z,24.77
2022-08-11T06:51:14.560Z,24.92
2022-08-11T06:54:03.745Z,25.07
2022-08-11T06:57:26.489Z,25.29
2022-08-11T07:00:05.733Z,25.50
2022-08-11T07:02:43.391Z,25.72
2022-08-11T07:05:20.861Z,25.95
2022-08-11T07:08:35.814Z,26.14
2022-08-11T07:12:11.505Z,26.46
2022-08-11T07:15:07.425Z,26.87
2022-08-11T07:17:42.073Z,27.07
2022-08-11T07:20:32.166Z,27.21
2022-08-11T07:23:20.860Z,27.50
2022-08-11T07:26:12.075Z,27.82
2022-08-11T07:28:58.267Z,28.12
2022-08-11T07:31:35.723Z,28.30
2022-08-11T07:34:21.702Z,28.36
2022-08-11T07:36:53.651Z,28.51
2022-08-11T07:39:25.919Z,28.77
2022-08-11T07:41:57.569Z,29.07
2022-08-11T07:44:34.417Z,29.28
2022-08-11T07:47:23.203Z,29.55
2022-08-11T07:50:12.361Z,29.68
2022-08-11T07:52:41.556Z,29.80
2022-08-11T07:55:16.453Z,30.04
2022-08-11T07:58:15.415Z,30.30
2022-08-11T08:01:21.312Z,30.55
2022-08-11T08:04:11.086Z,30.91
2022-08-11T08:06:59.144Z,31.25
2022-08-11T08:09:47.232Z,31.41
2022-08-11T08:12:38.069Z,31.65
2022-08-11T08:15:28.287Z,32.05
2022-08-11T08:18:20.996Z,32.35
2022-08-11T08:20:51.186Z,32.60
2022-08-11T08:23:32.336Z,32.85
2022-08-11T08:26:03.786Z,32.79
2022-08-11T08:28:33.823Z,32.66
2022-08-11T08:31:03.220Z,32.70
2022-08-11T08:33:33.351Z,32.69
2022-08-11T08:36:16.584Z,32.51
2022-08-11T08:38:50.818Z,32.22
2022-08-11T08:41:24.913Z,32.16
2022-08-11T08:44:27.281Z,32.23
2022-08-11T08:46:54.339Z,32.47
2022-08-11T08:49:31.750Z,32.63
2022-08-11T08:52:26.477Z,32.89
2022-08-11T08:54:56.721Z,33.14
2022-08-11T08:57:29.399Z,33.29
2022-08-11T09:00:00.247Z,33.52
2022-08-11T09:02:34.647Z,33.70
2022-08-11T09:05:07.161Z,33.92
2022-08-11T09:07:39.063Z,34.21
2022-08-11T09:10:11.214Z,34.20
2022-08-11T09:12:42.433Z,33.98
2022-08-11T09:15:13.528Z,33.91
2022-08-11T09:17:45.955Z,33.83
2022-08-11T09:20:18.015Z,33.82
2022-08-11T09:26:30.463Z,34.10
2022-08-11T09:29:01.181Z,34.03
2022-08-11T09:31:39.466Z,33.80
2022-08-11T09:34:10.729Z,33.64
2022-08-11T09:37:01.376Z,33.45
2022-08-11T09:39:50.139Z,33.25
2022-08-11T09:42:23.757Z,32.81
2022-08-11T09:44:53.949Z,32.26
2022-08-11T09:47:25.974Z,31.82
2022-08-11T09:49:59.605Z,31.53
2022-08-11T09:52:32.246Z,31.22
2022-08-11T09:55:02.779Z,31.01
2022-08-11T09:57:50.007Z,30.85
2022-08-11T10:00:21.116Z,30.81
2022-08-11T10:02:54.005Z,30.77
2022-08-11T10:05:42.164Z,30.81
2022-08-11T10:08:14.311Z,30.84
2022-08-11T10:10:45.676Z,30.73
2022-08-11T10:14:31.061Z,30.60
2022-08-11T10:16:16.162Z,30.77
2022-08-11T10:18:52.047Z,31.00
2022-08-11T10:21:27.703Z,31.07
2022-08-11T10:24:17.795Z,31.01
2022-08-11T10:26:55.238Z,30.99
2022-08-11T10:29:50.067Z,30.98
2022-08-11T10:32:46.399Z,30.88
2022-08-11T10:35:30.358Z,30.85
2022-08-11T10:38:08.431Z,30.95
2022-08-11T10:40:41.415Z,30.93
2022-08-11T10:43:13.045Z,30.88
2022-08-11T10:46:03.860Z,30.98
2022-08-11T10:48:37.746Z,31.06
2022-08-11T10:51:14.501Z,31.03
2022-08-11T10:54:04.834Z,30.98
2022-08-11T10:56:56.961Z,30.98
2022-08-11T10:59:29.368Z,30.92
2022-08-11T11:01:59.679Z,30.73
2022-08-11T11:04:38.432Z,30.65
2022-08-11T11:07:16.257Z,30.61
2022-08-11T11:09:50.555Z,30.64
2022-08-11T11:12:42.687Z,30.59
2022-08-11T11:15:31.286Z,30.45
2022-08-11T11:18:06.300Z,30.45
2022-08-11T11:20:41.571Z,30.53
2022-08-11T11:23:19.796Z,30.54
2022-08-11T11:26:10.012Z,30.52
2022-08-11T11:29:14.559Z,30.58
2022-08-11T11:31:56.383Z,30.62
2022-08-11T11:34:52.742Z,30.51
2022-08-11T11:37:23.927Z,30.41
2022-08-11T11:39:54.218Z,30.36
2022-08-11T11:42:24.697Z,30.37
2022-08-11T11:44:56.200Z,30.39
2022-08-11T11:47:26.767Z,30.37
2022-08-11T11:49:57.034Z,30.28
2022-08-11T11:52:26.577Z,30.19
2022-08-11T11:54:57.348Z,30.20
2022-08-11T11:57:58.474Z,30.23
2022-08-11T12:00:48.648Z,30.23
2022-08-11T12:03:19.892Z,30.13
2022-08-11T12:05:52.285Z,30.10
2022-08-11T12:08:27.578Z,30.02
2022-08-11T12:11:14.063Z,29.92
2022-08-11T12:13:45.933Z,29.83
2022-08-11T12:16:33.125Z,29.84
2022-08-11T12:19:07.649Z,29.89
2022-08-11T12:21:59.348Z,29.91
2022-08-11T12:24:49.239Z,29.98
2022-08-11T12:27:24.206Z,30.04
2022-08-11T12:29:57.930Z,30.09
2022-08-11T12:32:29.662Z,30.08
2022-08-11T12:34:59.640Z,29.96
2022-08-11T12:37:32.347Z,29.96
2022-08-11T12:40:43.373Z,29.98
2022-08-11T12:43:38.819Z,29.97
2022-08-11T12:46:12.340Z,30.00
2022-08-11T12:49:04.424Z,29.88
2022-08-11T12:52:00.996Z,29.85
2022-08-11T12:54:51.346Z,29.89
2022-08-11T12:57:43.837Z,29.92
2022-08-11T13:00:32.545Z,29.98
2022-08-11T13:03:20.421Z,29.99
2022-08-11T13:05:52.332Z,29.83
2022-08-11T13:08:24.469Z,29.76
2022-08-11T13:11:13.890Z,29.76
2022-08-11T13:13:52.346Z,29.55
2022-08-11T13:16:28.970Z,29.28
2022-08-11T13:19:00.487Z,29.09
2022-08-11T13:21:30.119Z,28.93
2022-08-11T13:24:03.332Z,28.82
2022-08-11T13:26:47.212Z,28.75
2022-08-11T13:29:23.002Z,28.67
2022-08-11T13:31:53.708Z,28.67
2022-08-11T13:34:24.864Z,28.73
2022-08-11T13:36:56.829Z,28.76
2022-08-11T13:39:28.277Z,28.77
2022-08-11T13:41:59.289Z,28.80
2022-08-11T13:44:30.744Z,28.85
2022-08-11T13:47:03.341Z,28.86
2022-08-11T13:49:36.935Z,28.85
2022-08-11T13:52:13.024Z,28.78
2022-08-11T13:54:43.024Z,28.74
2022-08-11T13:58:08.699Z,28.75
2022-08-11T14:00:23.454Z,28.73
2022-08-11T14:02:58.143Z,28.72
2022-08-11T14:05:32.121Z,28.72
2022-08-11T14:08:03.485Z,28.74
2022-08-11T14:10:35.695Z,28.78
2022-08-11T14:13:28.434Z,28.83
2022-08-11T14:16:04.260Z,28.87
2022-08-11T14:18:35.399Z,28.80
2022-08-11T14:21:24.512Z,28.69
2022-08-11T14:23:57.328Z,28.59
2022-08-11T14:26:28.170Z,28.48
2022-08-11T14:29:01.578Z,28.41
2022-08-11T14:31:32.720Z,28.33
2022-08-11T14:34:04.611Z,28.28
2022-08-11T14:36:36.951Z,28.28
2022-08-11T14:39:12.368Z,28.32
2022-08-11T14:42:11.593Z,28.35
2022-08-11T14:45:05.400Z,28.37
2022-08-11T14:47:37.114Z,28.37
2022-08-11T14:50:12.824Z,28.40
2022-08-11T14:52:48.527Z,28.42
2022-08-11T14:55:36.847Z,28.41
2022-08-11T14:58:08.751Z,28.43
2022-08-11T15:00:39.373Z,28.46
2022-08-11T15:03:11.435Z,28.43
2022-08-11T15:05:57.733Z,28.39
2022-08-11T15:08:48.321Z,28.36
2022-08-11T15:11:37.030Z,28.38
2022-08-11T15:14:08.555Z,28.42
2022-08-11T15:16:59.150Z,28.46
2022-08-11T15:19:40.249Z,28.51
2022-08-11T15:22:28.722Z,28.55
2022-08-11T15:24:59.810Z,28.59
2022-08-11T15:27:48.985Z,28.60
2022-08-11T15:30:36.176Z,28.64
2022-08-11T15:33:26.263Z,28.65
2022-08-11T15:36:15.699Z,28.65
2022-08-11T15:38:55.336Z,28.67
2022-08-11T15:41:56.427Z,28.70
2022-08-11T15:45:04.942Z,28.74
2022-08-11T15:47:36.808Z,28.84
2022-08-11T15:50:13.830Z,28.90
2022-08-11T15:52:52.617Z,28.96
2022-08-11T15:55:23.975Z,28.93
2022-08-11T15:58:09.683Z,28.86
2022-08-11T16:01:03.864Z,28.79
2022-08-11T16:04:07.916Z,28.71
2022-08-11T16:06:44.827Z,28.65
2022-08-11T16:09:23.851Z,28.57
2022-08-11T16:11:54.715Z,28.49
2022-08-11T16:14:42.448Z,28.43
2022-08-11T16:17:14.685Z,28.38
2022-08-11T16:19:44.221Z,28.36
2022-08-11T16:22:15.635Z,28.35
2022-08-11T16:27:02.760Z,28.33
2022-08-11T16:27:40.619Z,28.33
2022-08-11T16:30:10.943Z,28.33
2022-08-11T16:32:43.271Z,28.31
2022-08-11T16:35:34.349Z,28.25
2022-08-11T16:38:24.131Z,28.19
2022-08-11T16:40:55.841Z,28.17
2022-08-11T16:43:46.400Z,28.12
2022-08-11T16:46:32.733Z,28.06
2022-08-11T16:49:04.897Z,28.01
2022-08-11T16:51:34.714Z,27.94
2022-08-11T16:54:06.170Z,27.88
2022-08-11T16:56:39.347Z,27.84
2022-08-11T16:59:14.526Z,27.81
2022-08-11T17:01:45.187Z,27.78
2022-08-11T17:04:42.325Z,27.72
2022-08-11T17:07:41.480Z,27.68
2022-08-11T17:10:53.336Z,27.65
2022-08-11T17:13:31.796Z,27.61
2022-08-11T17:16:11.000Z,27.58
2022-08-11T17:18:48.669Z,27.56
2022-08-11T17:21:21.694Z,27.55
2022-08-11T17:23:55.265Z,27.55
2022-08-11T17:26:46.740Z,27.54
2022-08-11T17:29:17.246Z,27.51
2022-08-11T17:32:07.067Z,27.49
2022-08-11T17:34:55.747Z,27.48
2022-08-11T17:37:27.036Z,27.45
2022-08-11T17:39:57.792Z,27.41
2022-08-11T17:42:48.173Z,27.38
2022-08-11T17:45:37.901Z,27.36
2022-08-11T17:48:25.837Z,27.32
2022-08-11T17:50:56.696Z,27.27
2022-08-11T17:54:10.150Z,27.24
2022-08-11T17:56:53.889Z,27.19
2022-08-11T17:59:43.867Z,27.10
2022-08-11T18:02:39.739Z,27.01
2022-08-11T18:05:13.451Z,26.90
2022-08-11T18:08:03.550Z,26.86
2022-08-11T18:10:52.609Z,26.79
2022-08-11T18:13:42.757Z,26.75
2022-08-11T18:16:30.427Z,26.71
2022-08-11T18:19:18.276Z,26.65
2022-08-11T18:22:15.410Z,26.58
2022-08-11T18:25:09.748Z,26.53
2022-08-11T18:28:01.686Z,26.48
2022-08-11T18:30:51.404Z,26.39
2022-08-11T18:34:06.927Z,26.31
2022-08-11T18:36:59.526Z,26.24
2022-08-11T18:39:54.742Z,26.15
2022-08-11T18:42:47.725Z,26.09
2022-08-11T18:45:45.646Z,26.01
2022-08-11T18:48:38.570Z,25.99
2022-08-11T18:51:30.624Z,25.96
2022-08-11T18:54:28.438Z,25.93
2022-08-11T18:57:18.992Z,25.90
2022-08-11T19:00:08.159Z,25.88
2022-08-11T19:02:57.710Z,25.90
2022-08-11T19:06:35.498Z,25.90
2022-08-11T19:08:59.642Z,25.91
2022-08-11T19:11:49.726Z,25.92
2022-08-11T19:14:39.715Z,25.91
2022-08-11T19:17:44.555Z,25.88
2022-08-11T19:20:35.919Z,25.85
2022-08-11T19:23:26.504Z,25.81
2022-08-11T19:26:14.939Z,25.78
2022-08-11T19:29:05.267Z,25.73
2022-08-11T19:31:53.536Z,25.66
2022-08-11T19:34:43.134Z,25.59
2022-08-11T19:37:30.841Z,25.57
2022-08-11T19:40:21.310Z,25.52
2022-08-11T19:43:23.652Z,25.48
2022-08-11T19:46:17.219Z,25.45
2022-08-11T19:49:09.192Z,25.42
2022-08-11T19:51:57.044Z,25.38
2022-08-11T19:54:47.095Z,25.36
2022-08-11T19:57:39.632Z,25.35
2022-08-11T20:00:31.749Z,25.36
2022-08-11T20:03:20.196Z,25.37
2022-08-11T20:06:10.369Z,25.37
2022-08-11T20:09:01.966Z,25.38
2022-08-11T20:11:53.604Z,25.38
2022-08-11T20:14:42.885Z,25.37
2022-08-11T20:17:33.453Z,25.35
2022-08-11T20:20:25.559Z,25.34
2022-08-11T20:23:16.501Z,25.32
2022-08-11T20:26:27.863Z,25.32
2022-08-11T20:29:13.580Z,25.30
2022-08-11T20:32:01.871Z,25.28
2022-08-11T20:34:56.093Z,25.26
2022-08-11T20:37:50.175Z,25.26
2022-08-11T20:40:40.974Z,25.24
2022-08-11T20:44:06.674Z,25.23
2022-08-11T20:46:38.427Z,25.22
2022-08-11T20:49:41.300Z,25.21
2022-08-11T20:52:38.073Z,25.19
2022-08-11T20:55:52.212Z,25.18
2022-08-11T20:59:04.059Z,25.19
2022-08-11T21:01:45.435Z,25.21
2022-08-11T21:04:32.995Z,25.23
2022-08-11T21:10:30.913Z,25.21
2022-08-11T21:13:26.505Z,25.21
2022-08-11T21:16:26.196Z,25.20
2022-08-11T21:19:18.684Z,25.19
2022-08-11T21:22:07.636Z,25.17
2022-08-11T21:24:55.985Z,25.14
2022-08-11T21:27:45.304Z,25.13
2022-08-11T21:30:32.440Z,25.10
2022-08-11T21:33:20.638Z,25.10
2022-08-11T21:36:08.308Z,25.09
2022-08-11T21:38:55.829Z,25.09
2022-08-11T21:41:43.008Z,25.07
2022-08-11T21:44:38.421Z,25.07
2022-08-11T21:47:42.912Z,25.07
2022-08-11T21:50:31.178Z,25.05
2022-08-11T21:53:19.165Z,25.02
2022-08-11T21:56:07.968Z,25.01
2022-08-11T21:58:57.117Z,25.00
2022-08-11T22:01:45.248Z,24.98
2022-08-11T22:04:32.648Z,24.97
2022-08-11T22:07:20.343Z,24.96
2022-08-11T22:10:27.273Z,24.95
2022-08-11T22:13:15.369Z,24.89
2022-08-11T22:16:02.587Z,24.89
2022-08-11T22:18:51.748Z,24.87
2022-08-11T22:21:59.562Z,24.85
2022-08-11T22:24:48.349Z,24.83
2022-08-11T22:27:35.476Z,24.82
2022-08-11T22:30:23.261Z,24.79
2022-08-11T22:33:10.986Z,24.77
2022-08-11T22:35:59.697Z,24.76
2022-08-11T22:38:47.390Z,24.71
2022-08-11T22:41:34.571Z,24.70
2022-08-11T22:44:21.842Z,24.67
2022-08-11T22:47:12.537Z,24.65
2022-08-11T22:50:02.892Z,24.64
2022-08-11T22:52:52.195Z,24.61
2022-08-11T22:55:40.901Z,24.59
2022-08-11T22:58:28.012Z,24.56
2022-08-11T23:01:16.481Z,24.54
2022-08-11T23:04:05.618Z,24.51
2022-08-11T23:06:56.448Z,24.50
2022-08-11T23:09:43.667Z,24.49
2022-08-11T23:12:32.389Z,24.49
2022-08-11T23:15:20.239Z,24.48
2022-08-11T23:18:07.335Z,24.45
2022-08-11T23:20:56.091Z,24.44
2022-08-11T23:23:46.465Z,24.42
2022-08-11T23:26:35.674Z,24.40
2022-08-11T23:29:22.980Z,24.39
2022-08-11T23:32:11.029Z,24.38
2022-08-11T23:35:38.788Z,24.35
2022-08-11T23:38:09.547Z,24.32
2022-08-11T23:40:57.847Z,24.28
2022-08-11T23:43:44.967Z,24.25
2022-08-11T23:46:32.171Z,24.24
2022-08-11T23:49:21.751Z,24.21
2022-08-11T23:52:10.347Z,24.19
2022-08-11T23:54:58.007Z,24.15
2022-08-11T23:57:48.808Z,24.12
